createdAt,value
2018-07-08T00:00:10.308Z,63.68
2018-07-08T00:02:39.401Z,63.74
2018-07-08T00:05:09.409Z,63.55
2018-07-08T00:07:38.955Z,63.33
2018-07-08T00:10:08.205Z,63.14
2018-07-08T00:12:37.396Z,62.77
2018-07-08T00:15:06.365Z,62.73
2018-07-08T00:17:35.023Z,62.75
2018-07-08T00:20:03.749Z,63.39
2018-07-08T00:22:32.498Z,63.28
2018-07-08T00:25:01.313Z,62.46
2018-07-08T00:27:30.061Z,62.71
2018-07-08T00:29:58.742Z,61.67
2018-07-08T00:32:28.100Z,60.93
2018-07-08T00:34:57.113Z,60.02
2018-07-08T00:37:26.055Z,59.98
2018-07-08T00:39:54.810Z,59.37
2018-07-08T00:42:23.408Z,59.37
2018-07-08T00:44:52.218Z,60.33
2018-07-08T00:47:21.195Z,60.31
2018-07-08T00:49:49.752Z,60.68
2018-07-08T00:52:18.394Z,60.61
2018-07-08T00:54:47.355Z,61.71
2018-07-08T00:57:17.140Z,61.91
2018-07-08T00:59:45.725Z,61.65
2018-07-08T01:02:14.287Z,62.34
2018-07-08T01:04:43.304Z,61.70
2018-07-08T01:07:12.349Z,62.07
2018-07-08T01:09:41.787Z,61.73
2018-07-08T01:12:16.993Z,61.92
2018-07-08T01:14:45.621Z,61.40
2018-07-08T01:17:17.043Z,61.10
2018-07-08T01:19:45.781Z,60.96
2018-07-08T01:22:14.430Z,60.99
2018-07-08T01:24:43.710Z,61.12
2018-07-08T01:27:12.297Z,61.39
2018-07-08T01:29:41.399Z,61.90
2018-07-08T01:32:10.014Z,61.64
2018-07-08T01:34:39.333Z,61.84
2018-07-08T01:37:08.459Z,61.67
2018-07-08T01:39:37.351Z,61.72
2018-07-08T01:42:07.221Z,62.04
2018-07-08T01:44:36.585Z,61.86
2018-07-08T01:47:05.207Z,62.42
2018-07-08T01:49:34.179Z,62.35
2018-07-08T01:52:02.897Z,62.13
2018-07-08T01:54:31.567Z,62.87
2018-07-08T01:57:00.568Z,62.56
2018-07-08T01:59:29.225Z,62.71
2018-07-08T02:01:58.643Z,62.04
2018-07-08T02:06:55.357Z,61.88
2018-07-08T02:09:23.962Z,62.23
2018-07-08T02:11:52.624Z,61.89
2018-07-08T02:14:21.947Z,61.89
2018-07-08T02:16:52.024Z,61.72
2018-07-08T02:19:21.144Z,62.12
2018-07-08T02:21:50.486Z,62.07
2018-07-08T02:24:20.000Z,62.05
2018-07-08T02:26:49.344Z,62.00
2018-07-08T02:29:22.485Z,61.81
2018-07-08T02:31:51.579Z,61.62
2018-07-08T02:34:21.481Z,61.60
2018-07-08T02:36:50.173Z,61.65
2018-07-08T02:39:18.840Z,61.39
2018-07-08T02:41:48.231Z,61.34
2018-07-08T02:44:17.035Z,61.27
2018-07-08T02:46:45.799Z,61.17
2018-07-08T02:49:14.669Z,60.84
2018-07-08T02:51:43.292Z,60.61
2018-07-08T02:54:13.359Z,60.83
2018-07-08T02:56:43.359Z,60.75
2018-07-08T02:59:11.985Z,61.09
2018-07-08T03:01:40.539Z,61.52
2018-07-08T03:04:09.621Z,61.26
2018-07-08T03:06:38.202Z,61.72
2018-07-08T03:09:08.077Z,61.73
2018-07-08T03:11:37.040Z,61.41
2018-07-08T03:14:05.762Z,60.89
2018-07-08T03:16:34.333Z,61.26
2018-07-08T03:19:03.028Z,61.25
2018-07-08T03:21:35.750Z,61.83
2018-07-08T03:24:04.360Z,62.07
2018-07-08T03:26:33.941Z,62.23
2018-07-08T03:29:02.568Z,62.61
2018-07-08T03:31:31.131Z,62.17
2018-07-08T03:33:59.744Z,63.24
2018-07-08T03:36:28.398Z,63.47
2018-07-08T03:38:57.430Z,63.28
2018-07-08T03:41:26.364Z,63.32
2018-07-08T03:43:55.702Z,62.08
2018-07-08T03:46:24.467Z,62.30
2018-07-08T03:48:53.092Z,62.74
2018-07-08T03:51:21.737Z,62.44
2018-07-08T03:53:50.995Z,62.05
2018-07-08T03:56:21.129Z,61.82
2018-07-08T03:58:50.022Z,61.99
2018-07-08T04:01:18.911Z,61.76
2018-07-08T04:03:48.528Z,61.89
2018-07-08T04:06:17.183Z,61.37
2018-07-08T04:08:46.175Z,61.73
2018-07-08T04:11:14.757Z,61.77
2018-07-08T04:13:43.375Z,61.74
2018-07-08T04:16:12.035Z,61.36
2018-07-08T04:18:40.796Z,61.61
2018-07-08T04:21:10.097Z,61.74
2018-07-08T04:23:39.093Z,61.26
2018-07-08T04:26:09.368Z,61.74
2018-07-08T04:28:37.997Z,62.01
2018-07-08T04:31:06.638Z,62.02
2018-07-08T04:33:35.320Z,62.38
2018-07-08T04:36:06.378Z,62.40
2018-07-08T04:38:35.286Z,62.21
2018-07-08T04:41:03.951Z,62.35
2018-07-08T04:43:32.575Z,62.99
2018-07-08T04:46:01.223Z,62.92
2018-07-08T04:48:30.108Z,62.45
2018-07-08T04:50:58.833Z,63.08
2018-07-08T04:53:28.141Z,63.10
2018-07-08T04:55:56.859Z,62.66
2018-07-08T04:58:25.557Z,63.28
2018-07-08T05:00:54.296Z,63.64
2018-07-08T05:03:23.279Z,62.83
2018-07-08T05:05:51.921Z,62.71
2018-07-08T05:08:20.509Z,62.98
2018-07-08T05:10:49.100Z,62.81
2018-07-08T05:13:18.047Z,62.31
2018-07-08T05:15:47.561Z,62.86
2018-07-08T05:18:16.700Z,62.63
2018-07-08T05:20:45.352Z,63.00
2018-07-08T05:23:14.282Z,62.52
2018-07-08T05:25:43.284Z,62.30
2018-07-08T05:28:11.941Z,62.69
2018-07-08T05:30:40.738Z,62.46
2018-07-08T05:33:09.525Z,62.30
2018-07-08T05:35:38.117Z,61.91
2018-07-08T05:38:06.718Z,61.92
2018-07-08T05:40:35.511Z,61.36
2018-07-08T05:43:04.157Z,59.35
2018-07-08T05:45:33.494Z,58.84
2018-07-08T05:48:02.119Z,57.94
2018-07-08T05:50:31.094Z,55.33
2018-07-08T05:53:01.091Z,56.34
2018-07-08T05:55:29.700Z,56.55
2018-07-08T05:57:58.773Z,55.70
2018-07-08T06:00:27.502Z,55.66
2018-07-08T06:02:56.137Z,55.34
2018-07-08T06:05:25.098Z,55.16
2018-07-08T06:07:53.779Z,54.80
2018-07-08T06:10:22.444Z,54.62
2018-07-08T06:12:51.042Z,55.61
2018-07-08T06:15:20.132Z,55.85
2018-07-08T06:17:48.775Z,57.02
2018-07-08T06:20:18.045Z,56.37
2018-07-08T06:22:47.008Z,55.44
2018-07-08T06:25:15.637Z,56.42
2018-07-08T06:27:44.885Z,56.11
2018-07-08T06:30:13.549Z,54.84
2018-07-08T06:32:42.700Z,55.03
2018-07-08T06:35:11.877Z,53.51
2018-07-08T06:37:42.264Z,53.92
2018-07-08T06:40:10.889Z,54.43
2018-07-08T06:42:40.781Z,54.34
2018-07-08T06:45:09.536Z,54.36
2018-07-08T06:47:38.319Z,54.01
2018-07-08T06:50:07.767Z,54.24
2018-07-08T06:52:36.487Z,53.72
2018-07-08T06:55:05.180Z,51.78
2018-07-08T06:57:34.299Z,51.23
2018-07-08T07:00:03.166Z,51.76
2018-07-08T07:02:31.957Z,51.45
2018-07-08T07:05:00.916Z,49.61
2018-07-08T07:07:29.834Z,49.38
2018-07-08T07:09:58.685Z,49.00
2018-07-08T07:12:27.633Z,49.46
2018-07-08T07:14:56.302Z,49.72
2018-07-08T07:17:24.973Z,48.80
2018-07-08T07:19:54.222Z,48.19
2018-07-08T07:22:22.885Z,47.41
2018-07-08T07:24:51.575Z,46.54
2018-07-08T07:27:20.304Z,46.58
2018-07-08T07:29:48.964Z,44.79
2018-07-08T07:32:17.625Z,45.53
2018-07-08T07:34:46.296Z,45.10
2018-07-08T07:37:14.962Z,45.90
2018-07-08T07:39:44.017Z,44.20
2018-07-08T07:42:12.678Z,45.06
2018-07-08T07:44:41.689Z,43.97
2018-07-08T07:47:10.475Z,43.18
2018-07-08T07:49:39.133Z,44.02
2018-07-08T07:52:07.840Z,43.61
2018-07-08T07:54:36.495Z,44.23
2018-07-08T07:57:05.166Z,42.38
2018-07-08T07:59:34.547Z,40.52
2018-07-08T08:02:03.270Z,42.33
2018-07-08T08:04:32.016Z,40.74
2018-07-08T08:07:01.044Z,41.36
2018-07-08T08:09:29.903Z,41.51
2018-07-08T08:11:58.602Z,40.42
2018-07-08T08:14:27.296Z,42.20
2018-07-08T08:16:56.147Z,41.53
2018-07-08T08:19:25.058Z,40.30
2018-07-08T08:21:53.753Z,40.67
2018-07-08T08:24:23.323Z,40.61
2018-07-08T08:26:52.158Z,40.82
2018-07-08T08:29:21.182Z,41.51
2018-07-08T08:31:49.950Z,39.97
2018-07-08T08:34:56.008Z,39.28
2018-07-08T08:37:28.903Z,40.95
2018-07-08T08:39:59.016Z,40.16
2018-07-08T08:42:27.875Z,39.17
2018-07-08T08:44:57.595Z,40.64
2018-07-08T08:47:27.809Z,40.84
2018-07-08T08:49:56.774Z,37.63
2018-07-08T08:52:25.554Z,39.19
2018-07-08T08:54:55.185Z,36.75
2018-07-08T08:57:24.301Z,37.37
2018-07-08T08:59:52.943Z,35.89
2018-07-08T09:02:21.606Z,36.54
2018-07-08T09:04:50.953Z,37.02
2018-07-08T09:07:20.514Z,36.95
2018-07-08T09:09:49.212Z,36.67
2018-07-08T09:12:18.534Z,36.54
2018-07-08T09:14:47.620Z,36.24
2018-07-08T09:17:16.485Z,35.99
2018-07-08T09:19:45.514Z,33.62
2018-07-08T09:22:14.825Z,34.50
2018-07-08T09:24:44.065Z,35.76
2018-07-08T09:27:14.353Z,35.56
2018-07-08T09:29:43.038Z,35.91
2018-07-08T09:32:11.991Z,36.89
2018-07-08T09:34:40.821Z,36.66
2018-07-08T09:37:09.698Z,35.92
2018-07-08T09:39:38.635Z,34.98
2018-07-08T09:42:10.815Z,36.21
2018-07-08T09:44:41.488Z,36.26
2018-07-08T09:47:13.196Z,35.47
2018-07-08T09:49:41.803Z,34.12
2018-07-08T09:52:13.581Z,34.29
2018-07-08T09:54:45.304Z,35.17
2018-07-08T09:57:16.514Z,34.66
2018-07-08T09:59:47.843Z,33.00
2018-07-08T10:02:18.119Z,34.79
2018-07-08T10:04:50.439Z,35.64
2018-07-08T10:07:21.518Z,35.70
2018-07-08T10:09:53.885Z,34.47
2018-07-08T10:12:24.731Z,33.96
2018-07-08T10:14:57.086Z,34.81
2018-07-08T10:17:28.455Z,35.28
2018-07-08T10:20:00.962Z,34.78
2018-07-08T10:22:31.505Z,35.09
2018-07-08T10:25:03.140Z,33.96
2018-07-08T10:28:20.605Z,34.24
2018-07-08T10:30:51.723Z,35.66
2018-07-08T10:33:22.883Z,35.40
2018-07-08T10:35:59.039Z,35.41
2018-07-08T10:38:30.560Z,34.99
2018-07-08T10:41:01.326Z,34.44
2018-07-08T10:43:33.157Z,33.53
2018-07-08T10:46:05.478Z,33.55
2018-07-08T10:48:37.039Z,34.68
2018-07-08T10:51:06.953Z,32.76
2018-07-08T10:53:38.265Z,34.10
2018-07-08T10:56:09.375Z,33.98
2018-07-08T10:58:40.519Z,33.43
2018-07-08T11:01:12.009Z,33.51
2018-07-08T11:03:42.645Z,34.75
2018-07-08T11:06:15.791Z,34.25
2018-07-08T11:08:47.493Z,33.75
2018-07-08T11:11:18.849Z,34.76
2018-07-08T11:13:49.715Z,34.71
2018-07-08T11:16:20.193Z,33.81
2018-07-08T11:18:52.774Z,33.57
2018-07-08T11:21:23.559Z,34.17
2018-07-08T11:23:54.507Z,33.40
2018-07-08T11:26:26.235Z,32.41
2018-07-08T11:28:56.892Z,32.70
2018-07-08T11:31:27.922Z,31.52
2018-07-08T11:33:58.013Z,31.79
2018-07-08T11:36:29.994Z,32.05
2018-07-08T11:39:00.903Z,33.11
2018-07-08T11:41:33.402Z,31.95
2018-07-08T11:44:05.071Z,32.03
2018-07-08T11:46:34.071Z,32.19
2018-07-08T11:49:10.949Z,31.83
2018-07-08T11:51:42.568Z,31.70
2018-07-08T11:54:13.552Z,33.14
2018-07-08T11:56:45.316Z,31.70
2018-07-08T11:59:16.889Z,32.10
2018-07-08T12:01:47.673Z,33.20
2018-07-08T12:04:18.713Z,33.51
2018-07-08T12:06:50.813Z,31.39
2018-07-08T12:09:24.305Z,32.87
2018-07-08T12:11:56.691Z,31.96
2018-07-08T12:14:28.051Z,32.22
2018-07-08T12:17:00.008Z,32.81
2018-07-08T12:19:39.339Z,32.20
2018-07-08T12:22:14.129Z,33.28
2018-07-08T12:24:46.485Z,32.95
2018-07-08T12:27:18.190Z,32.39
2018-07-08T12:29:50.107Z,32.01
2018-07-08T12:32:21.619Z,31.55
2018-07-08T12:34:52.640Z,32.85
2018-07-08T12:37:24.046Z,31.99
2018-07-08T12:39:55.336Z,32.07
2018-07-08T12:42:26.344Z,32.04
2018-07-08T12:44:57.438Z,31.85
2018-07-08T12:47:28.162Z,31.70
2018-07-08T12:50:00.328Z,31.03
2018-07-08T12:52:29.429Z,30.07
2018-07-08T12:55:00.519Z,29.80
2018-07-08T12:57:31.607Z,28.98
2018-07-08T13:00:02.506Z,26.63
2018-07-08T13:02:33.341Z,24.93
2018-07-08T13:05:02.379Z,24.05
2018-07-08T13:07:34.011Z,23.55
2018-07-08T13:10:09.259Z,22.55
2018-07-08T13:12:43.351Z,23.71
2018-07-08T13:15:19.904Z,25.54
2018-07-08T13:17:52.404Z,25.32
2018-07-08T13:20:22.951Z,22.52
2018-07-08T13:22:54.899Z,21.18
2018-07-08T13:25:26.077Z,20.44
2018-07-08T13:27:58.471Z,20.23
2018-07-08T13:30:30.487Z,21.29
2018-07-08T13:33:01.676Z,21.75
2018-07-08T13:35:32.724Z,22.58
2018-07-08T13:38:03.465Z,23.67
2018-07-08T13:40:34.442Z,23.90
2018-07-08T13:43:05.337Z,22.38
2018-07-08T13:45:36.943Z,23.10
2018-07-08T13:48:08.516Z,23.67
2018-07-08T13:50:40.007Z,24.13
2018-07-08T13:53:11.204Z,25.26
2018-07-08T13:55:42.334Z,23.48
2018-07-08T13:58:11.620Z,23.27
2018-07-08T14:00:43.158Z,23.08
2018-07-08T14:03:14.367Z,22.53
2018-07-08T14:05:46.028Z,21.62
2018-07-08T14:08:16.753Z,22.22
2018-07-08T14:10:46.921Z,23.17
2018-07-08T14:13:17.921Z,23.49
2018-07-08T14:15:49.540Z,22.80
2018-07-08T14:18:20.628Z,23.61
2018-07-08T14:20:51.969Z,23.64
2018-07-08T14:23:21.195Z,23.39
2018-07-08T14:25:52.345Z,23.21
2018-07-08T14:28:25.377Z,22.70
2018-07-08T14:30:57.002Z,23.67
2018-07-08T14:33:28.013Z,23.21
2018-07-08T14:36:04.109Z,23.33
2018-07-08T14:38:35.058Z,23.58
2018-07-08T14:41:07.949Z,22.90
2018-07-08T14:43:39.011Z,22.09
2018-07-08T14:46:09.778Z,22.55
2018-07-08T14:48:41.201Z,22.19
2018-07-08T14:51:12.256Z,22.81
2018-07-08T14:53:43.056Z,22.11
2018-07-08T14:56:13.397Z,23.48
2018-07-08T14:58:44.604Z,22.56
2018-07-08T15:01:15.589Z,23.62
2018-07-08T15:03:47.300Z,23.29
2018-07-08T15:06:17.772Z,23.71
2018-07-08T15:08:49.170Z,24.37
2018-07-08T15:11:20.918Z,23.78
2018-07-08T15:13:52.211Z,23.90
2018-07-08T15:16:21.541Z,23.71
2018-07-08T15:18:53.223Z,23.88
2018-07-08T15:21:24.727Z,23.61
2018-07-08T15:23:56.249Z,24.09
2018-07-08T15:26:30.995Z,24.11
2018-07-08T15:29:01.299Z,22.87
2018-07-08T15:31:33.192Z,23.38
2018-07-08T15:34:04.650Z,23.55
2018-07-08T15:36:35.773Z,24.25
2018-07-08T15:39:08.999Z,24.44
2018-07-08T15:41:38.001Z,23.74
2018-07-08T15:44:08.930Z,24.51
2018-07-08T15:46:40.417Z,25.21
2018-07-08T15:49:11.301Z,24.97
2018-07-08T15:51:42.387Z,24.98
2018-07-08T15:54:13.578Z,25.64
2018-07-08T15:56:44.413Z,25.03
2018-07-08T15:59:15.071Z,25.36
2018-07-08T16:01:46.462Z,26.23
2018-07-08T16:04:17.490Z,25.00
2018-07-08T16:06:48.603Z,24.97
2018-07-08T16:09:19.866Z,25.70
2018-07-08T16:11:52.754Z,25.79
2018-07-08T16:14:23.875Z,26.39
2018-07-08T16:16:56.308Z,25.57
2018-07-08T16:19:27.421Z,25.89
2018-07-08T16:21:57.863Z,25.95
2018-07-08T16:24:28.752Z,26.43
2018-07-08T16:27:00.017Z,28.57
2018-07-08T16:29:30.937Z,27.47
2018-07-08T16:32:02.981Z,26.43
2018-07-08T16:34:31.756Z,25.92
2018-07-08T16:37:03.279Z,26.64
2018-07-08T16:39:34.379Z,26.23
2018-07-08T16:42:05.718Z,26.43
2018-07-08T16:44:37.609Z,25.89
2018-07-08T16:47:07.329Z,26.55
2018-07-08T16:49:38.360Z,25.52
2018-07-08T16:52:09.483Z,25.58
2018-07-08T16:54:40.919Z,25.35
2018-07-08T16:57:12.803Z,25.51
2018-07-08T16:59:44.313Z,25.32
2018-07-08T17:02:16.251Z,25.36
2018-07-08T17:04:47.048Z,24.12
2018-07-08T17:07:19.177Z,24.02
2018-07-08T17:09:49.941Z,24.26
2018-07-08T17:12:22.455Z,25.50
2018-07-08T17:14:53.761Z,25.07
2018-07-08T17:17:24.481Z,25.05
2018-07-08T17:19:56.661Z,25.68
2018-07-08T17:22:27.883Z,24.83
2018-07-08T17:24:58.931Z,24.81
2018-07-08T17:27:27.647Z,25.53
2018-07-08T17:29:58.705Z,25.08
2018-07-08T17:32:31.783Z,25.41
2018-07-08T17:35:02.850Z,26.54
2018-07-08T17:37:33.841Z,26.13
2018-07-08T17:40:04.698Z,26.23
2018-07-08T17:42:35.775Z,26.11
2018-07-08T17:45:06.524Z,25.50
2018-07-08T17:47:37.716Z,25.20
2018-07-08T17:50:09.172Z,25.50
2018-07-08T17:52:40.558Z,25.79
2018-07-08T17:55:11.206Z,25.51
2018-07-08T17:57:43.713Z,26.29
2018-07-08T18:00:15.810Z,26.41
2018-07-08T18:02:46.659Z,25.97
2018-07-08T18:05:17.382Z,26.57
2018-07-08T18:07:48.960Z,26.58
2018-07-08T18:10:20.057Z,26.40
2018-07-08T18:12:52.907Z,25.67
2018-07-08T18:15:24.489Z,26.81
2018-07-08T18:17:55.453Z,26.24
2018-07-08T18:20:26.767Z,28.07
2018-07-08T18:22:57.993Z,27.54
2018-07-08T18:25:29.472Z,27.96
2018-07-08T18:28:00.580Z,27.35
2018-07-08T18:30:32.865Z,27.29
2018-07-08T18:33:02.028Z,27.67
2018-07-08T18:35:34.150Z,28.61
2018-07-08T18:38:04.767Z,28.26
2018-07-08T18:40:35.557Z,27.42
2018-07-08T18:43:08.084Z,26.46
2018-07-08T18:45:37.152Z,27.94
2018-07-08T18:48:08.853Z,28.65
2018-07-08T18:50:40.487Z,28.57
2018-07-08T18:53:11.299Z,28.91
2018-07-08T18:55:42.017Z,28.43
2018-07-08T18:58:12.729Z,28.33
2018-07-08T19:00:45.292Z,27.76
2018-07-08T19:03:17.571Z,28.74
2018-07-08T19:05:49.911Z,28.11
2018-07-08T19:08:21.505Z,28.98
2018-07-08T19:10:51.536Z,29.24
2018-07-08T19:13:24.351Z,29.49
2018-07-08T19:15:57.177Z,29.55
2018-07-08T19:18:31.621Z,30.09
2018-07-08T19:21:02.263Z,29.64
2018-07-08T19:23:33.775Z,29.25
2018-07-08T19:26:03.616Z,30.09
2018-07-08T19:28:34.911Z,29.14
2018-07-08T19:31:05.852Z,29.40
2018-07-08T19:33:37.579Z,29.74
2018-07-08T19:36:08.847Z,29.17
2018-07-08T19:38:37.911Z,30.19
2018-07-08T19:41:10.467Z,29.97
2018-07-08T19:43:41.205Z,30.42
2018-07-08T19:46:12.263Z,30.29
2018-07-08T19:48:43.002Z,31.03
2018-07-08T19:51:13.988Z,30.39
2018-07-08T19:53:45.090Z,31.15
2018-07-08T19:56:15.512Z,30.02
2018-07-08T19:58:46.321Z,30.80
2018-07-08T20:01:16.702Z,31.12
2018-07-08T20:03:47.801Z,30.87
2018-07-08T20:06:18.612Z,31.19
2018-07-08T20:08:49.736Z,31.62
2018-07-08T20:11:20.476Z,31.38
2018-07-08T20:13:51.766Z,31.81
2018-07-08T20:16:22.492Z,31.46
2018-07-08T20:18:53.211Z,31.60
2018-07-08T20:21:24.571Z,31.82
2018-07-08T20:23:54.948Z,31.93
2018-07-08T20:26:26.085Z,32.18
2018-07-08T20:28:54.846Z,32.79
2018-07-08T20:31:23.575Z,33.50
2018-07-08T20:33:53.973Z,33.88
2018-07-08T20:36:23.330Z,34.33
2018-07-08T20:38:52.833Z,35.03
2018-07-08T20:41:21.565Z,34.87
2018-07-08T20:43:50.640Z,35.75
2018-07-08T20:46:20.974Z,36.60
2018-07-08T20:48:50.267Z,36.57
2018-07-08T20:51:19.049Z,37.24
2018-07-08T20:53:47.679Z,37.41
2018-07-08T20:56:17.656Z,37.48
2018-07-08T20:58:47.097Z,37.75
2018-07-08T21:01:17.482Z,38.22
2018-07-08T21:03:47.026Z,38.66
2018-07-08T21:06:17.158Z,39.02
2018-07-08T21:08:46.806Z,39.44
2018-07-08T21:11:16.883Z,39.58
2018-07-08T21:13:47.237Z,39.89
2018-07-08T21:16:17.082Z,39.67
2018-07-08T21:18:47.535Z,39.93
2018-07-08T21:21:17.341Z,40.71
2018-07-08T21:23:46.251Z,40.01
2018-07-08T21:26:15.201Z,40.61
2018-07-08T21:28:44.706Z,40.44
2018-07-08T21:31:13.347Z,38.92
2018-07-08T21:33:43.903Z,40.25
2018-07-08T21:36:13.107Z,39.91
2018-07-08T21:38:42.290Z,39.76
2018-07-08T21:41:11.784Z,40.24
2018-07-08T21:43:40.920Z,40.69
2018-07-08T21:46:09.967Z,40.96
2018-07-08T21:48:39.756Z,40.83
2018-07-08T21:51:10.610Z,41.06
2018-07-08T21:53:39.672Z,41.54
2018-07-08T21:56:09.411Z,40.99
2018-07-08T21:58:38.215Z,41.36
2018-07-08T22:01:15.551Z,41.99
2018-07-08T22:03:45.515Z,41.67
2018-07-08T22:06:16.584Z,41.50
2018-07-08T22:08:45.797Z,41.90
2018-07-08T22:11:14.488Z,40.53
2018-07-08T22:13:44.105Z,41.09
2018-07-08T22:16:13.214Z,41.57
2018-07-08T22:18:42.026Z,41.61
2018-07-08T22:21:11.504Z,39.97
2018-07-08T22:23:40.850Z,40.63
2018-07-08T22:26:13.223Z,40.38
2018-07-08T22:28:42.447Z,40.71
2018-07-08T22:31:12.537Z,41.57
2018-07-08T22:33:41.225Z,41.76
2018-07-08T22:36:10.021Z,41.90
2018-07-08T22:38:39.922Z,41.79
2018-07-08T22:41:08.635Z,41.68
2018-07-08T22:43:38.032Z,42.18
